createdAt,value
2023-04-03T00:02:26.039Z,1.58
2023-04-03T00:04:52.686Z,1.60
2023-04-03T00:07:19.181Z,1.45
2023-04-03T00:09:47.008Z,1.65
2023-04-03T00:12:13.477Z,1.35
2023-04-03T00:14:40.015Z,1.70
2023-04-03T00:17:06.518Z,1.50
2023-04-03T00:19:33.215Z,1.05
2023-04-03T00:21:59.750Z,1.60
2023-04-03T00:24:26.311Z,1.52
2023-04-03T00:26:54.120Z,1.48
2023-04-03T00:29:20.764Z,1.58
2023-04-03T00:31:47.264Z,2.03
2023-04-03T00:34:13.680Z,1.42
2023-04-03T00:36:40.383Z,1.40
2023-04-03T00:39:06.930Z,1.40
2023-04-03T00:41:33.420Z,1.63
2023-04-03T00:44:01.356Z,1.30
2023-04-03T00:46:27.853Z,1.50
2023-04-03T00:48:54.390Z,1.40
2023-04-03T00:51:25.241Z,1.58
2023-04-03T00:53:55.990Z,1.40
2023-04-03T00:56:25.892Z,1.40
2023-04-03T00:58:57.296Z,1.17
2023-04-03T01:01:28.124Z,1.17
2023-04-03T01:03:54.901Z,1.83
2023-04-03T01:06:26.484Z,1.50
2023-04-03T01:08:53.930Z,1.30
2023-04-03T01:11:20.478Z,1.30
2023-04-03T01:13:47.509Z,1.45
2023-04-03T01:16:14.043Z,1.30
2023-04-03T01:18:42.993Z,1.30
2023-04-03T01:21:26.198Z,1.27
2023-04-03T01:24:08.005Z,1.70
2023-04-03T01:26:34.488Z,1.38
2023-04-03T01:29:01.167Z,1.42
2023-04-03T01:31:32.201Z,1.52
2023-04-03T01:34:00.045Z,1.58
2023-04-03T01:36:29.210Z,1.52
2023-04-03T01:38:57.497Z,1.30
2023-04-03T01:41:24.018Z,1.40
2023-04-03T01:43:50.867Z,1.00
2023-04-03T01:46:18.143Z,1.30
2023-04-03T01:48:44.742Z,1.33
2023-04-03T01:51:12.798Z,1.38
2023-04-03T01:53:39.547Z,1.45
2023-04-03T01:56:07.004Z,1.40
2023-04-03T01:58:33.517Z,1.40
2023-04-03T02:01:00.097Z,1.60
2023-04-03T02:03:26.672Z,1.40
2023-04-03T02:05:53.690Z,1.35
2023-04-03T02:08:21.535Z,1.00
2023-04-03T02:10:48.939Z,1.30
2023-04-03T02:13:15.625Z,1.15
2023-04-03T02:15:42.127Z,1.30
2023-04-03T02:18:08.984Z,1.30
2023-04-03T02:20:35.763Z,1.50
2023-04-03T02:23:02.838Z,1.30
2023-04-03T02:25:31.555Z,1.30
2023-04-03T02:27:58.106Z,1.50
2023-04-03T02:30:24.598Z,1.35
2023-04-03T02:32:51.103Z,1.30
2023-04-03T02:35:17.693Z,1.40
2023-04-03T02:37:44.134Z,1.23
2023-04-03T02:40:11.080Z,1.13
2023-04-03T02:42:39.073Z,1.27
2023-04-03T02:45:06.508Z,1.60
2023-04-03T02:47:33.086Z,1.40
2023-04-03T02:49:59.600Z,1.20
2023-04-03T02:52:26.137Z,1.17
2023-04-03T02:54:52.610Z,1.25
2023-04-03T02:57:19.281Z,1.50
2023-04-03T02:59:47.134Z,1.20
2023-04-03T03:02:13.573Z,1.40
2023-04-03T03:04:40.165Z,1.50
2023-04-03T03:07:06.679Z,1.33
2023-04-03T03:09:33.139Z,1.15
2023-04-03T03:11:59.702Z,1.30
2023-04-03T03:14:26.392Z,1.33
2023-04-03T03:16:54.167Z,1.33
2023-04-03T03:19:20.637Z,1.40
2023-04-03T03:21:47.256Z,1.42
2023-04-03T03:24:13.724Z,1.45
2023-04-03T03:26:40.192Z,1.05
2023-04-03T03:29:06.692Z,1.38
2023-04-03T03:31:33.296Z,1.50
2023-04-03T03:34:01.115Z,1.20
2023-04-03T03:36:27.553Z,1.38
2023-04-03T03:38:54.029Z,1.23
2023-04-03T03:41:20.487Z,1.45
2023-04-03T03:43:46.926Z,1.25
2023-04-03T03:46:13.561Z,1.15
2023-04-03T03:48:40.292Z,1.20
2023-04-03T03:51:08.104Z,1.20
2023-04-03T03:53:34.595Z,1.40
2023-04-03T03:56:01.093Z,1.23
2023-04-03T03:58:27.653Z,1.25
2023-04-03T04:00:54.133Z,1.10
2023-04-03T04:03:20.778Z,1.33
2023-04-03T04:05:47.276Z,1.30
2023-04-03T04:08:15.034Z,1.38
2023-04-03T04:10:41.555Z,1.02
2023-04-03T04:13:08.175Z,1.30
2023-04-03T04:15:35.295Z,1.65
2023-04-03T04:18:02.253Z,1.30
2023-04-03T04:20:28.780Z,1.38
2023-04-03T04:22:55.255Z,1.50
2023-04-03T04:25:23.108Z,1.33
2023-04-03T04:27:49.548Z,1.40
2023-04-03T04:30:16.826Z,1.20
2023-04-03T04:32:43.357Z,1.30
2023-04-03T04:35:10.461Z,1.33
2023-04-03T04:37:36.945Z,1.20
2023-04-03T04:40:03.461Z,1.40
2023-04-03T04:42:31.312Z,1.17
2023-04-03T04:44:57.762Z,1.40
2023-04-03T04:47:24.258Z,1.25
2023-04-03T04:49:50.903Z,1.23
2023-04-03T04:52:17.346Z,1.20
2023-04-03T04:54:43.778Z,1.05
2023-04-03T04:57:10.373Z,1.45
2023-04-03T04:59:38.137Z,1.33
2023-04-03T05:02:04.697Z,1.13
2023-04-03T05:04:31.365Z,1.23
2023-04-03T05:06:57.946Z,1.30
2023-04-03T05:09:24.442Z,1.02
2023-04-03T05:11:50.954Z,1.27
2023-04-03T05:14:17.597Z,1.30
2023-04-03T05:16:45.386Z,1.30
2023-04-03T05:19:11.956Z,1.23
2023-04-03T05:21:38.623Z,1.23
2023-04-03T05:24:06.009Z,1.50
2023-04-03T05:26:32.487Z,2.67
2023-04-03T05:28:59.337Z,2.38
2023-04-03T05:31:25.983Z,2.85
2023-04-03T05:33:53.802Z,2.85
2023-04-03T05:36:20.361Z,2.83
2023-04-03T05:38:47.145Z,2.88
2023-04-03T05:41:13.905Z,3.03
2023-04-03T05:43:40.542Z,2.70
2023-04-03T05:46:11.143Z,3.20
2023-04-03T05:48:37.691Z,2.90
2023-04-03T05:51:05.894Z,2.60
2023-04-03T05:53:35.455Z,1.73
2023-04-03T05:56:01.992Z,2.03
2023-04-03T05:58:28.488Z,1.85
2023-04-03T06:00:54.948Z,1.73
2023-04-03T06:03:21.570Z,1.83
2023-04-03T06:05:48.216Z,1.60
2023-04-03T06:08:16.029Z,1.90
2023-04-03T06:10:42.584Z,1.77
2023-04-03T06:13:09.055Z,1.95
2023-04-03T06:15:35.774Z,1.95
2023-04-03T06:18:02.390Z,1.77
2023-04-03T06:20:29.107Z,1.65
2023-04-03T06:22:55.707Z,1.40
2023-04-03T06:25:23.783Z,1.50
2023-04-03T06:27:50.190Z,1.70
2023-04-03T06:30:16.958Z,1.40
2023-04-03T06:32:43.463Z,1.33
2023-04-03T06:35:10.952Z,1.20
2023-04-03T06:37:37.485Z,1.65
2023-04-03T06:40:04.694Z,1.50
2023-04-03T06:42:32.610Z,1.70
2023-04-03T06:44:59.075Z,1.50
2023-04-03T06:47:25.597Z,1.40
2023-04-03T06:49:52.149Z,1.63
2023-04-03T06:52:18.684Z,1.50
2023-04-03T06:54:45.293Z,1.20
2023-04-03T06:57:11.900Z,1.10
2023-04-03T06:59:39.745Z,1.30
2023-04-03T07:02:06.935Z,1.08
2023-04-03T07:04:33.557Z,1.40
2023-04-03T07:07:00.115Z,1.25
2023-04-03T07:09:26.552Z,1.63
2023-04-03T07:11:53.136Z,1.40
2023-04-03T07:14:19.713Z,1.80
2023-04-03T07:16:47.490Z,1.70
2023-04-03T07:19:14.550Z,1.50
2023-04-03T07:21:42.286Z,1.58
2023-04-03T07:24:11.509Z,1.80
2023-04-03T07:26:41.889Z,1.52
2023-04-03T07:29:09.819Z,2.00
2023-04-03T07:31:36.880Z,2.97
2023-04-03T07:34:04.991Z,1.80
2023-04-03T07:36:31.858Z,1.40
2023-04-03T07:38:58.790Z,1.58
2023-04-03T07:41:25.705Z,1.90
2023-04-03T07:43:52.258Z,1.95
2023-04-03T07:46:19.001Z,1.60
2023-04-03T07:48:45.510Z,1.73
2023-04-03T07:51:13.704Z,1.50
2023-04-03T07:53:40.421Z,1.67
2023-04-03T07:56:07.888Z,1.98
2023-04-03T07:58:34.452Z,1.80
2023-04-03T08:01:01.111Z,1.90
2023-04-03T08:03:27.711Z,1.70
2023-04-03T08:05:54.336Z,1.75
2023-04-03T08:08:23.412Z,1.70
2023-04-03T08:10:51.034Z,1.60
2023-04-03T08:13:18.275Z,1.88
2023-04-03T08:15:44.864Z,1.58
2023-04-03T08:18:11.613Z,2.05
2023-04-03T08:20:39.570Z,1.70
2023-04-03T08:23:06.326Z,2.00
2023-04-03T08:25:34.223Z,3.60
2023-04-03T08:28:00.741Z,3.50
2023-04-03T08:30:27.292Z,3.60
2023-04-03T08:32:53.885Z,4.28
2023-04-03T08:35:20.520Z,4.22
2023-04-03T08:37:47.091Z,4.72
2023-04-03T08:40:16.829Z,2.80
2023-04-03T08:42:54.947Z,3.38
2023-04-03T08:45:28.325Z,2.60
2023-04-03T08:48:01.655Z,2.35
2023-04-03T08:50:36.112Z,3.20
2023-04-03T08:53:04.033Z,2.70
2023-04-03T08:55:34.101Z,2.50
2023-04-03T08:58:04.705Z,2.20
2023-04-03T09:00:39.698Z,2.40
2023-04-03T09:03:06.466Z,2.42
2023-04-03T09:05:47.170Z,2.50
2023-04-03T09:08:23.095Z,2.38
2023-04-03T09:10:52.296Z,2.72
2023-04-03T09:13:27.623Z,2.92
2023-04-03T09:15:55.625Z,2.90
2023-04-03T09:18:29.579Z,2.60
2023-04-03T09:21:04.400Z,2.50
2023-04-03T09:23:35.005Z,2.67
2023-04-03T09:26:06.329Z,2.72
2023-04-03T09:28:46.893Z,3.05
2023-04-03T09:31:21.408Z,2.70
2023-04-03T09:33:50.564Z,3.20
2023-04-03T09:36:38.566Z,3.58
2023-04-03T09:39:06.514Z,3.95
2023-04-03T09:41:33.003Z,3.90
2023-04-03T09:44:00.888Z,4.28
2023-04-03T09:46:34.800Z,3.50
2023-04-03T09:51:40.759Z,3.03
2023-04-03T09:54:26.844Z,3.10
2023-04-03T09:56:55.254Z,3.17
2023-04-03T09:59:23.168Z,2.92
2023-04-03T10:02:03.301Z,2.75
2023-04-03T10:04:40.024Z,2.85
2023-04-03T10:07:31.755Z,2.63
2023-04-03T10:09:59.281Z,2.70
2023-04-03T10:12:25.904Z,2.67
2023-04-03T10:14:58.425Z,2.53
2023-04-03T10:17:46.080Z,2.67
2023-04-03T10:20:27.521Z,2.28
2023-04-03T10:23:05.290Z,2.53
2023-04-03T10:25:41.046Z,2.50
2023-04-03T10:28:13.404Z,2.40
2023-04-03T10:30:51.157Z,2.30
2023-04-03T10:33:26.034Z,2.45
2023-04-03T10:36:03.038Z,2.95
2023-04-03T10:38:39.526Z,2.47
2023-04-03T10:41:17.458Z,2.70
2023-04-03T10:43:50.990Z,2.17
2023-04-03T10:46:24.109Z,2.20
2023-04-03T10:49:03.307Z,2.85
2023-04-03T10:51:38.086Z,2.65
2023-04-03T10:54:13.227Z,2.50
2023-04-03T10:56:42.451Z,3.15
2023-04-03T10:59:19.400Z,2.80
2023-04-03T11:01:51.965Z,2.42
2023-04-03T11:04:20.050Z,2.75
2023-04-03T11:06:50.789Z,3.33
2023-04-03T11:09:24.571Z,2.70
2023-04-03T11:11:54.038Z,2.75
2023-04-03T11:14:26.962Z,2.60
2023-04-03T11:17:05.031Z,2.67
2023-04-03T11:19:39.526Z,2.97
2023-04-03T11:22:16.133Z,2.80
2023-04-03T11:24:47.358Z,3.50
2023-04-03T11:27:20.442Z,2.85
2023-04-03T11:29:47.976Z,2.70
2023-04-03T11:32:45.409Z,3.42
2023-04-03T11:35:12.826Z,4.07
2023-04-03T11:37:41.853Z,3.78
2023-04-03T11:40:20.662Z,3.70
2023-04-03T11:42:50.015Z,3.30
2023-04-03T11:45:26.265Z,3.92
2023-04-03T11:47:55.222Z,4.22
2023-04-03T11:50:32.846Z,3.88
2023-04-03T11:53:01.739Z,3.95
2023-04-03T11:55:53.252Z,3.70
2023-04-03T11:58:20.875Z,4.28
2023-04-03T12:00:50.940Z,4.10
2023-04-03T12:03:37.372Z,4.90
2023-04-03T12:06:23.879Z,4.70
2023-04-03T12:08:55.064Z,4.35
2023-04-03T12:11:29.572Z,4.28
2023-04-03T12:14:05.776Z,4.22
2023-04-03T12:16:42.951Z,4.40
2023-04-03T12:19:42.549Z,4.22
2023-04-03T12:22:15.245Z,4.18
2023-04-03T12:24:44.190Z,3.30
2023-04-03T12:27:24.059Z,3.88
2023-04-03T12:29:57.112Z,3.70
2023-04-03T12:32:41.230Z,4.20
2023-04-03T12:35:19.697Z,4.07
2023-04-03T12:38:11.759Z,4.20
2023-04-03T12:40:47.732Z,3.72
2023-04-03T12:43:29.653Z,3.50
2023-04-03T12:46:02.667Z,3.60
2023-04-03T12:48:32.295Z,3.22
2023-04-03T12:50:59.967Z,2.95
2023-04-03T12:53:29.433Z,3.05
2023-04-03T12:56:18.166Z,3.60
2023-04-03T12:58:44.734Z,3.15
2023-04-03T13:01:13.126Z,3.00
2023-04-03T13:03:43.640Z,2.92
2023-04-03T13:06:17.958Z,3.10
2023-04-03T13:08:50.027Z,2.90
2023-04-03T13:11:20.672Z,2.80
2023-04-03T13:13:58.628Z,2.90
2023-04-03T13:16:25.198Z,3.13
2023-04-03T13:18:53.270Z,2.83
2023-04-03T13:21:23.013Z,3.25
2023-04-03T13:23:57.561Z,3.00
2023-04-03T13:26:33.781Z,2.95
2023-04-03T13:29:05.486Z,3.42
2023-04-03T13:31:33.903Z,3.35
2023-04-03T13:34:06.539Z,3.30
2023-04-03T13:36:35.761Z,2.55
2023-04-03T13:39:06.005Z,3.50
2023-04-03T13:41:36.294Z,3.10
2023-04-03T13:44:17.158Z,3.28
2023-04-03T13:46:43.892Z,3.10
2023-04-03T13:49:20.524Z,3.20
2023-04-03T13:51:51.502Z,3.15
2023-04-03T13:54:26.654Z,3.22
2023-04-03T13:56:56.995Z,3.40
2023-04-03T13:59:27.934Z,3.40
2023-04-03T14:02:07.259Z,3.00
2023-04-03T14:04:47.622Z,3.50
2023-04-03T14:07:15.965Z,3.22
2023-04-03T14:09:42.707Z,2.95
2023-04-03T14:12:30.036Z,3.25
2023-04-03T14:14:57.893Z,3.08
2023-04-03T14:17:26.366Z,3.10
2023-04-03T14:19:54.467Z,3.00
2023-04-03T14:22:23.435Z,3.10
2023-04-03T14:24:50.592Z,3.20
2023-04-03T14:27:21.885Z,3.20
2023-04-03T14:29:50.018Z,3.30
2023-04-03T14:32:18.630Z,2.80
2023-04-03T14:34:46.261Z,3.20
2023-04-03T14:37:15.129Z,3.40
2023-04-03T14:39:42.543Z,2.88
2023-04-03T14:42:13.521Z,3.50
2023-04-03T14:44:41.426Z,3.83
2023-04-03T14:47:14.340Z,4.15
2023-04-03T14:49:47.115Z,4.20
2023-04-03T14:52:20.315Z,4.57
2023-04-03T14:54:46.988Z,4.25
2023-04-03T14:57:15.073Z,4.05
2023-04-03T14:59:43.175Z,4.20
2023-04-03T15:02:28.650Z,3.88
2023-04-03T15:04:56.040Z,4.63
2023-04-03T15:07:23.411Z,4.07
2023-04-03T15:09:50.485Z,4.22
2023-04-03T15:12:17.757Z,4.20
2023-04-03T15:14:52.497Z,3.75
2023-04-03T15:17:23.377Z,4.50
2023-04-03T15:19:49.934Z,4.30
2023-04-03T15:22:19.102Z,5.13
2023-04-03T15:24:46.181Z,4.60
2023-04-03T15:27:13.985Z,4.30
2023-04-03T15:29:41.963Z,4.03
2023-04-03T15:32:10.797Z,4.40
2023-04-03T15:34:38.111Z,4.03
2023-04-03T15:37:04.637Z,4.45
2023-04-03T15:39:31.114Z,3.70
2023-04-03T15:41:58.046Z,4.60
2023-04-03T15:44:24.744Z,4.60
2023-04-03T15:46:51.435Z,4.85
2023-04-03T15:49:21.739Z,4.95
2023-04-03T15:51:48.244Z,4.47
2023-04-03T15:54:14.979Z,4.60
2023-04-03T15:56:41.446Z,4.63
2023-04-03T15:59:07.944Z,4.68
2023-04-03T16:01:34.694Z,4.90
2023-04-03T16:04:01.468Z,4.53
2023-04-03T16:06:29.376Z,4.70
2023-04-03T16:08:56.191Z,4.80
2023-04-03T16:11:22.692Z,4.80
2023-04-03T16:13:49.228Z,5.35
2023-04-03T16:16:15.861Z,5.13
2023-04-03T16:18:42.635Z,4.93
2023-04-03T16:21:09.795Z,5.25
2023-04-03T16:23:37.555Z,5.20
2023-04-03T16:26:04.195Z,4.75
2023-04-03T16:28:30.725Z,5.32
2023-04-03T16:30:57.753Z,5.50
2023-04-03T16:33:24.987Z,5.00
2023-04-03T16:35:51.920Z,3.70
2023-04-03T16:38:18.740Z,3.70
2023-04-03T16:40:46.638Z,3.78
2023-04-03T16:43:13.201Z,4.13
2023-04-03T16:45:39.862Z,3.40
2023-04-03T16:48:06.721Z,3.50
2023-04-03T16:50:33.372Z,3.58
2023-04-03T16:52:59.925Z,3.58
2023-04-03T16:55:26.412Z,2.90
2023-04-03T16:57:54.148Z,3.45
2023-04-03T17:00:20.949Z,3.85
2023-04-03T17:02:47.472Z,4.00
2023-04-03T17:05:13.926Z,3.22
2023-04-03T17:07:40.456Z,3.13
2023-04-03T17:10:08.559Z,3.40
2023-04-03T17:12:35.086Z,3.33
2023-04-03T17:15:03.449Z,3.35
2023-04-03T17:17:29.942Z,3.28
2023-04-03T17:19:57.297Z,3.00
2023-04-03T17:22:24.180Z,3.20
2023-04-03T17:24:50.650Z,3.22
2023-04-03T17:27:17.170Z,3.30
2023-04-03T17:29:43.889Z,3.28
2023-04-03T17:32:11.790Z,3.13
2023-04-03T17:34:38.269Z,3.00
2023-04-03T17:37:04.827Z,3.40
2023-04-03T17:39:31.818Z,3.47
2023-04-03T17:41:58.364Z,3.20
2023-04-03T17:44:24.835Z,3.10
2023-04-03T17:46:51.430Z,3.20
2023-04-03T17:49:19.237Z,3.38
2023-04-03T17:51:46.101Z,3.10
2023-04-03T17:54:13.937Z,3.10
2023-04-03T17:56:40.440Z,2.92
2023-04-03T17:59:06.896Z,2.70
2023-04-03T18:01:35.073Z,2.60
2023-04-03T18:04:03.509Z,2.65
2023-04-03T18:06:33.394Z,2.65
2023-04-03T18:09:05.380Z,2.80
2023-04-03T18:11:32.462Z,2.55
2023-04-03T18:14:02.600Z,2.58
2023-04-03T18:16:29.585Z,2.60
2023-04-03T18:19:06.943Z,2.40
2023-04-03T18:21:44.132Z,2.63
2023-04-03T18:24:13.174Z,2.42
2023-04-03T18:26:42.757Z,2.63
2023-04-03T18:29:11.456Z,2.28
2023-04-03T18:31:41.620Z,2.42
2023-04-03T18:34:08.177Z,2.30
2023-04-03T18:36:34.844Z,2.20
2023-04-03T18:39:02.678Z,2.20
2023-04-03T18:41:32.623Z,2.38
2023-04-03T18:44:04.278Z,2.22
2023-04-03T18:46:31.880Z,2.20
2023-04-03T18:48:59.140Z,2.22
2023-04-03T18:51:26.421Z,2.60
2023-04-03T18:53:52.973Z,3.75
2023-04-03T18:56:20.968Z,2.78
2023-04-03T18:58:47.796Z,3.03
2023-04-03T19:01:15.278Z,2.85
2023-04-03T19:03:42.069Z,2.30
2023-04-03T19:06:08.734Z,2.45
2023-04-03T19:08:35.346Z,2.35
2023-04-03T19:11:01.862Z,2.90
2023-04-03T19:13:29.651Z,2.75
2023-04-03T19:15:56.207Z,2.53
2023-04-03T19:18:22.700Z,2.50
2023-04-03T19:20:49.311Z,2.80
2023-04-03T19:23:16.508Z,2.58
2023-04-03T19:25:44.061Z,2.50
2023-04-03T19:28:10.960Z,2.47
2023-04-03T19:30:39.355Z,2.35
2023-04-03T19:33:06.066Z,2.50
2023-04-03T19:35:32.625Z,2.50
2023-04-03T19:37:59.106Z,2.22
2023-04-03T19:40:25.774Z,2.70
2023-04-03T19:42:52.758Z,2.30
2023-04-03T19:45:19.813Z,2.30
2023-04-03T19:47:47.776Z,2.20
2023-04-03T19:50:14.426Z,2.35
2023-04-03T19:52:40.881Z,2.53
2023-04-03T19:55:07.969Z,2.38
2023-04-03T19:57:34.607Z,2.08
2023-04-03T20:00:01.228Z,2.10
2023-04-03T20:02:27.947Z,2.20
2023-04-03T20:04:55.782Z,2.08
2023-04-03T20:07:22.508Z,2.28
2023-04-03T20:09:49.022Z,2.40
2023-04-03T20:12:15.623Z,2.17
2023-04-03T20:14:42.291Z,2.10
2023-04-03T20:17:09.028Z,2.00
2023-04-03T20:19:35.754Z,2.00
2023-04-03T20:22:03.613Z,2.03
2023-04-03T20:24:31.018Z,2.20
2023-04-03T20:26:57.580Z,1.98
2023-04-03T20:29:24.195Z,1.95
2023-04-03T20:31:51.440Z,2.17
2023-04-03T20:34:18.021Z,2.30
2023-04-03T20:36:44.624Z,2.10
2023-04-03T20:39:12.557Z,2.20
2023-04-03T20:41:39.081Z,2.03
2023-04-03T20:44:05.587Z,2.00
2023-04-03T20:46:49.109Z,1.98
2023-04-03T20:49:19.006Z,2.15
2023-04-03T20:51:45.468Z,2.20
2023-04-03T20:54:13.212Z,1.90
2023-04-03T20:56:39.670Z,1.83
2023-04-03T20:59:06.203Z,1.85
2023-04-03T21:01:32.839Z,2.17
2023-04-03T21:04:03.708Z,2.20
2023-04-03T21:06:50.146Z,1.98
2023-04-03T21:09:36.385Z,1.90
2023-04-03T21:12:22.713Z,1.95
2023-04-03T21:15:09.031Z,1.88
2023-04-03T21:17:35.243Z,1.80
2023-04-03T21:20:03.141Z,2.08
2023-04-03T21:22:29.620Z,1.90
2023-04-03T21:24:56.849Z,1.77
2023-04-03T21:27:23.419Z,1.85
2023-04-03T21:29:49.906Z,1.80
2023-04-03T21:32:16.375Z,1.80
2023-04-03T21:34:42.850Z,2.03
2023-04-03T21:37:10.754Z,1.75
2023-04-03T21:39:37.202Z,1.70
2023-04-03T21:42:03.857Z,1.73
2023-04-03T21:44:30.256Z,1.80
2023-04-03T21:46:56.751Z,1.88
2023-04-03T21:49:24.635Z,1.90
2023-04-03T21:51:51.260Z,1.85
2023-04-03T21:54:19.795Z,1.95
2023-04-03T21:56:46.605Z,1.70
2023-04-03T21:59:13.309Z,1.60
2023-04-03T22:01:40.205Z,1.70
2023-04-03T22:04:06.682Z,1.90
2023-04-03T22:06:33.289Z,1.70
2023-04-03T22:08:59.859Z,1.55
2023-04-03T22:11:27.657Z,1.63
2023-04-03T22:13:55.276Z,1.60
2023-04-03T22:16:22.403Z,2.00
2023-04-03T22:18:50.185Z,1.80
2023-04-03T22:21:16.812Z,1.60
2023-04-03T22:23:43.435Z,1.60
2023-04-03T22:26:11.512Z,1.63
2023-04-03T22:28:41.177Z,1.65
2023-04-03T22:31:08.636Z,1.80
2023-04-03T22:33:35.341Z,1.58
2023-04-03T22:36:02.225Z,1.70
2023-04-03T22:38:28.745Z,1.80
2023-04-03T22:40:57.799Z,1.60
2023-04-03T22:43:24.451Z,1.60
2023-04-03T22:45:52.232Z,1.70
2023-04-03T22:48:18.887Z,1.75
2023-04-03T22:50:45.634Z,1.90
2023-04-03T22:53:12.256Z,1.70
2023-04-03T22:55:38.768Z,1.60
2023-04-03T22:58:05.395Z,1.42
2023-04-03T23:00:32.357Z,1.35
2023-04-03T23:03:00.306Z,1.55
2023-04-03T23:05:26.901Z,1.60
2023-04-03T23:07:53.540Z,1.65
2023-04-03T23:10:20.235Z,1.58
2023-04-03T23:12:46.864Z,1.60
2023-04-03T23:15:13.296Z,1.60
2023-04-03T23:17:40.036Z,1.50
2023-04-03T23:20:08.533Z,1.70
2023-04-03T23:22:35.027Z,1.70
2023-04-03T23:25:01.496Z,1.55
2023-04-03T23:27:28.071Z,1.60
2023-04-03T23:29:54.533Z,1.73
2023-04-03T23:32:20.990Z,1.63
2023-04-03T23:34:47.425Z,1.70
2023-04-03T23:37:15.226Z,1.80
2023-04-03T23:39:41.712Z,1.50
2023-04-03T23:42:08.159Z,2.03
2023-04-03T23:44:34.723Z,1.80
2023-04-03T23:47:01.197Z,1.73
2023-04-03T23:49:27.762Z,2.00
2023-04-03T23:51:54.223Z,2.03
2023-04-03T23:54:21.971Z,1.88
2023-04-03T23:56:48.632Z,1.73
2023-04-03T23:59:15.252Z,2.00
